Flood From: 21-02-2018 10:08 Until: 22-02-2018 06:00 warning for: Flood Level: Yellow info button

Although rather usual in this region, locally or potentially dangerous phenomena are expected. (such as local winds, summer thunderstorms, rising streams or high waves) Be aware and pay attention to the latest weather updates, especially if you carry out activities exposed to weather or close to a stream or shoreline. 


Meteo18 Weather Cam more information Meteo18 Weather Cam


Thunder radar more information blitzortung!


Rain radar more information rain snow radar


Visit our other weather sites:

Template documentation
and downloads

And another site



Nearby METAR Reports

   
LFOA - Avord
Updated: 21-02-2018 15:30
Few Clouds  
Few Clouds  
   Wind: NNE 31.5 km/h
Wind: NNE 31.5 km/h
Temperature: 6°C
Wind Chill: 1°C
Dew Point: -3°C
Humidity: 53%
Barometer: 1016 hPa
Clouds: Few Clouds
Visibility: More than 10 km
Cloud details: Few Clouds 3700 ft
LFOA 211430Z AUTO 03017KT 9999 FEW037 06/M03 Q1016 NOSIG
LFQG - Nevers
Updated: 21-02-2018 15:00
Partly Cloudy  
Partly Cloudy  
   Wind: North 22.2 km/h
Wind: North 22.2 km/h
Temperature: 5°C
Wind Chill: 1°C
Dew Point: -3°C
Humidity: 57%
Barometer: 1016 hPa
Clouds: Partly Cloudy
Visibility: More than 10 km
Cloud details: Partly Cloudy 3700 ft
LFQG 211400Z AUTO 01012KT 340V040 9999 SCT037 05/M03 Q1016
LFYR - Romorantin
Updated: 21-02-2018 15:30
Few Clouds  
Few Clouds  
   Wind: NNE 16.7 km/h
Wind: NNE 16.7 km/h
Temperature: 6°C
Wind Chill: 3°C
Dew Point: -2°C
Humidity: 57%
Barometer: 1018 hPa
Clouds: Few Clouds
Visibility: More than 10 km
Cloud details: Few Clouds 3000 ft
LFYR 211430Z AUTO 03009KT 340V090 9999 FEW030 06/M02 Q1018 NOSIG
LFQB - Troyes
Updated: 21-02-2018 15:30
Partly Cloudy  
Partly Cloudy  
   Wind: NNE 24.1 km/h
Wind: NNE 24.1 km/h
Temperature: 6°C
Wind Chill: 2°C
Dew Point: -3°C
Humidity: 53%
Barometer: 1019 hPa
Clouds: Partly Cloudy
Visibility: 9 km
Cloud details: Partly Cloudy
LFQB 211430Z AUTO 03013KT 350V050 9000 NSC 06/M03 Q1019
  

Script developed by  Saratoga-weather.org Adapted for the template by  Weerstation Leuven

You find our weather info also at:

European Weather Network

Weather Underground

Equipment we use:

Weather-station
Davis Vue

Weather-program
Meteobridge

Weather-server
Raspberry PI 2 B+

Provider
1 and 1

Davis Vue

Meteobridge

Raspberry PI 2 B+

1 and 1